sensor_id;sensor_type;location;lat;lon;timestamp;temperature;humidity
15906;DHT22;8051;50.820;4.884;2023-03-01T00:00:30;-0.60;99.90
15906;DHT22;8051;50.820;4.884;2023-03-01T00:02:58;-0.60;99.90
15906;DHT22;8051;50.820;4.884;2023-03-01T00:05:25;-0.50;99.90
15906;DHT22;8051;50.820;4.884;2023-03-01T00:07:54;-0.50;99.90
15906;DHT22;8051;50.820;4.884;2023-03-01T00:10:22;-0.50;99.90
15906;DHT22;8051;50.820;4.884;2023-03-01T00:12:49;-0.50;99.90
15906;DHT22;8051;50.820;4.884;2023-03-01T00:15:17;-0.50;99.90
15906;DHT22;8051;50.820;4.884;2023-03-01T00:17:44;-0.60;99.90
15906;DHT22;8051;50.820;4.884;2023-03-01T00:20:12;-0.60;99.90
15906;DHT22;8051;50.820;4.884;2023-03-01T00:22:40;-0.70;99.90
15906;DHT22;8051;50.820;4.884;2023-03-01T00:25:09;-0.80;99.90
15906;DHT22;8051;50.820;4.884;2023-03-01T00:27:36;-0.90;99.90
15906;DHT22;8051;50.820;4.884;2023-03-01T00:30:05;-1.00;99.90
15906;DHT22;8051;50.820;4.884;2023-03-01T00:32:32;-1.10;99.90
15906;DHT22;8051;50.820;4.884;2023-03-01T00:35:00;-1.20;99.90
15906;DHT22;8051;50.820;4.884;2023-03-01T00:37:27;-1.30;99.90
15906;DHT22;8051;50.820;4.884;2023-03-01T00:39:55;-1.30;99.90
15906;DHT22;8051;50.820;4.884;2023-03-01T00:42:24;-1.40;99.90
15906;DHT22;8051;50.820;4.884;2023-03-01T00:44:51;-1.40;99.90
15906;DHT22;8051;50.820;4.884;2023-03-01T00:47:18;-1.50;99.90
15906;DHT22;8051;50.820;4.884;2023-03-01T00:49:46;-1.50;99.90
15906;DHT22;8051;50.820;4.884;2023-03-01T00:52:13;-1.40;99.90
15906;DHT22;8051;50.820;4.884;2023-03-01T00:54:41;-1.40;99.90
15906;DHT22;8051;50.820;4.884;2023-03-01T00:57:08;-1.50;99.90
15906;DHT22;8051;50.820;4.884;2023-03-01T00:59:37;-1.50;99.90
15906;DHT22;8051;50.820;4.884;2023-03-01T01:02:04;-1.50;99.90
15906;DHT22;8051;50.820;4.884;2023-03-01T01:04:32;-1.60;99.90
15906;DHT22;8051;50.820;4.884;2023-03-01T01:06:59;-1.60;99.90
15906;DHT22;8051;50.820;4.884;2023-03-01T01:09:27;-1.70;99.90
15906;DHT22;8051;50.820;4.884;2023-03-01T01:11:54;-1.70;99.90
15906;DHT22;8051;50.820;4.884;2023-03-01T01:14:22;-1.80;99.90
15906;DHT22;8051;50.820;4.884;2023-03-01T01:16:50;-1.70;99.90
15906;DHT22;8051;50.820;4.884;2023-03-01T01:19:18;-1.80;99.90
15906;DHT22;8051;50.820;4.884;2023-03-01T01:21:45;-1.70;99.90
15906;DHT22;8051;50.820;4.884;2023-03-01T01:24:14;-1.60;99.90
15906;DHT22;8051;50.820;4.884;2023-03-01T01:26:42;-1.60;99.90
15906;DHT22;8051;50.820;4.884;2023-03-01T01:29:10;-1.50;99.90
15906;DHT22;8051;50.820;4.884;2023-03-01T01:31:39;-1.40;99.90
15906;DHT22;8051;50.820;4.884;2023-03-01T01:34:13;-1.40;99.90
15906;DHT22;8051;50.820;4.884;2023-03-01T01:36:40;-1.40;99.90
15906;DHT22;8051;50.820;4.884;2023-03-01T01:39:08;-1.40;99.90
15906;DHT22;8051;50.820;4.884;2023-03-01T01:41:40;-1.40;99.90
15906;DHT22;8051;50.820;4.884;2023-03-01T01:44:17;-1.50;99.90
15906;DHT22;8051;50.820;4.884;2023-03-01T01:46:48;-1.50;99.90
15906;DHT22;8051;50.820;4.884;2023-03-01T01:49:26;-1.60;99.90
15906;DHT22;8051;50.820;4.884;2023-03-01T01:51:59;-1.60;99.90
15906;DHT22;8051;50.820;4.884;2023-03-01T01:54:31;-1.60;99.90
15906;DHT22;8051;50.820;4.884;2023-03-01T01:57:03;-1.70;99.90
15906;DHT22;8051;50.820;4.884;2023-03-01T01:59:33;-1.70;99.90
15906;DHT22;8051;50.820;4.884;2023-03-01T02:02:02;-1.70;99.90
15906;DHT22;8051;50.820;4.884;2023-03-01T02:04:32;-1.70;99.90
15906;DHT22;8051;50.820;4.884;2023-03-01T02:07:03;-1.70;99.90
15906;DHT22;8051;50.820;4.884;2023-03-01T02:09:32;-1.80;99.90
15906;DHT22;8051;50.820;4.884;2023-03-01T02:12:01;-1.80;99.90
15906;DHT22;8051;50.820;4.884;2023-03-01T02:14:29;-1.80;99.90
15906;DHT22;8051;50.820;4.884;2023-03-01T02:16:56;-1.80;99.90
15906;DHT22;8051;50.820;4.884;2023-03-01T02:19:34;-1.80;99.90
15906;DHT22;8051;50.820;4.884;2023-03-01T02:22:15;-1.80;99.90
15906;DHT22;8051;50.820;4.884;2023-03-01T02:24:50;-1.90;99.90
15906;DHT22;8051;50.820;4.884;2023-03-01T02:27:27;-1.90;99.90
15906;DHT22;8051;50.820;4.884;2023-03-01T02:30:00;-1.90;99.90
15906;DHT22;8051;50.820;4.884;2023-03-01T02:32:27;-1.90;99.90
15906;DHT22;8051;50.820;4.884;2023-03-01T02:34:55;-2.00;99.90
15906;DHT22;8051;50.820;4.884;2023-03-01T02:37:24;-2.10;99.90
15906;DHT22;8051;50.820;4.884;2023-03-01T02:39:56;-2.10;99.90
15906;DHT22;8051;50.820;4.884;2023-03-01T02:42:28;-2.10;99.90
15906;DHT22;8051;50.820;4.884;2023-03-01T02:44:58;-2.20;99.90
15906;DHT22;8051;50.820;4.884;2023-03-01T02:47:27;-2.20;99.90
15906;DHT22;8051;50.820;4.884;2023-03-01T02:49:54;-2.30;99.90
15906;DHT22;8051;50.820;4.884;2023-03-01T02:52:30;-2.30;99.90
15906;DHT22;8051;50.820;4.884;2023-03-01T02:55:03;-2.40;99.90
15906;DHT22;8051;50.820;4.884;2023-03-01T02:57:35;-2.40;99.90
15906;DHT22;8051;50.820;4.884;2023-03-01T03:00:05;-2.40;99.90
15906;DHT22;8051;50.820;4.884;2023-03-01T03:02:36;-2.50;99.90
15906;DHT22;8051;50.820;4.884;2023-03-01T03:05:06;-2.50;99.90
15906;DHT22;8051;50.820;4.884;2023-03-01T03:07:35;-2.50;99.90
15906;DHT22;8051;50.820;4.884;2023-03-01T03:10:06;-2.50;99.90
15906;DHT22;8051;50.820;4.884;2023-03-01T03:12:34;-2.60;99.90
15906;DHT22;8051;50.820;4.884;2023-03-01T03:15:01;-2.60;99.90
15906;DHT22;8051;50.820;4.884;2023-03-01T03:17:36;-2.60;99.90
15906;DHT22;8051;50.820;4.884;2023-03-01T03:20:04;-2.50;99.90
15906;DHT22;8051;50.820;4.884;2023-03-01T03:22:36;-2.60;99.90
15906;DHT22;8051;50.820;4.884;2023-03-01T03:25:05;-2.50;99.90
15906;DHT22;8051;50.820;4.884;2023-03-01T03:27:36;-2.60;99.90
15906;DHT22;8051;50.820;4.884;2023-03-01T03:30:06;-2.60;99.90
15906;DHT22;8051;50.820;4.884;2023-03-01T03:32:36;-2.60;99.90
15906;DHT22;8051;50.820;4.884;2023-03-01T03:35:04;-2.60;99.90
15906;DHT22;8051;50.820;4.884;2023-03-01T03:37:36;-2.50;99.90
15906;DHT22;8051;50.820;4.884;2023-03-01T03:40:20;-2.40;99.90
15906;DHT22;8051;50.820;4.884;2023-03-01T03:42:48;-2.30;99.90
15906;DHT22;8051;50.820;4.884;2023-03-01T03:45:16;-2.30;99.90
15906;DHT22;8051;50.820;4.884;2023-03-01T03:47:45;-2.30;99.90
15906;DHT22;8051;50.820;4.884;2023-03-01T03:50:14;-2.30;99.90
15906;DHT22;8051;50.820;4.884;2023-03-01T03:52:43;-2.30;99.90
15906;DHT22;8051;50.820;4.884;2023-03-01T03:55:11;-2.30;99.90
15906;DHT22;8051;50.820;4.884;2023-03-01T03:57:39;-2.30;99.90
15906;DHT22;8051;50.820;4.884;2023-03-01T04:00:10;-2.40;99.90
15906;DHT22;8051;50.820;4.884;2023-03-01T04:02:39;-2.40;99.90
15906;DHT22;8051;50.820;4.884;2023-03-01T04:05:09;-2.40;99.90
15906;DHT22;8051;50.820;4.884;2023-03-01T04:07:38;-2.40;99.90
15906;DHT22;8051;50.820;4.884;2023-03-01T04:10:08;-2.40;99.90
15906;DHT22;8051;50.820;4.884;2023-03-01T04:12:36;-2.50;99.90
15906;DHT22;8051;50.820;4.884;2023-03-01T04:15:05;-2.50;99.90
15906;DHT22;8051;50.820;4.884;2023-03-01T04:17:39;-2.60;99.90
15906;DHT22;8051;50.820;4.884;2023-03-01T04:20:10;-2.60;99.90
15906;DHT22;8051;50.820;4.884;2023-03-01T04:22:39;-2.60;99.90
15906;DHT22;8051;50.820;4.884;2023-03-01T04:25:07;-2.60;99.90
15906;DHT22;8051;50.820;4.884;2023-03-01T04:27:40;-2.70;99.90
15906;DHT22;8051;50.820;4.884;2023-03-01T04:30:09;-2.70;99.90
15906;DHT22;8051;50.820;4.884;2023-03-01T04:32:36;-2.70;99.90
15906;DHT22;8051;50.820;4.884;2023-03-01T04:35:04;-2.70;99.90
15906;DHT22;8051;50.820;4.884;2023-03-01T04:37:33;-2.70;99.90
15906;DHT22;8051;50.820;4.884;2023-03-01T04:40:01;-2.70;99.90
15906;DHT22;8051;50.820;4.884;2023-03-01T04:42:38;-2.70;99.90
15906;DHT22;8051;50.820;4.884;2023-03-01T04:45:07;-2.70;99.90
15906;DHT22;8051;50.820;4.884;2023-03-01T04:47:40;-2.70;99.90
15906;DHT22;8051;50.820;4.884;2023-03-01T04:50:09;-2.70;99.90
15906;DHT22;8051;50.820;4.884;2023-03-01T04:52:38;-2.80;99.90
15906;DHT22;8051;50.820;4.884;2023-03-01T04:55:06;-2.80;99.90
15906;DHT22;8051;50.820;4.884;2023-03-01T04:57:34;-2.80;99.90
15906;DHT22;8051;50.820;4.884;2023-03-01T05:00:02;-2.80;99.90
15906;DHT22;8051;50.820;4.884;2023-03-01T05:02:47;-2.80;99.90
15906;DHT22;8051;50.820;4.884;2023-03-01T05:05:19;-2.90;99.90
15906;DHT22;8051;50.820;4.884;2023-03-01T05:07:49;-2.90;99.90
15906;DHT22;8051;50.820;4.884;2023-03-01T05:10:16;-3.00;99.90
15906;DHT22;8051;50.820;4.884;2023-03-01T05:12:44;-3.00;99.90
15906;DHT22;8051;50.820;4.884;2023-03-01T05:15:12;-3.00;99.90
15906;DHT22;8051;50.820;4.884;2023-03-01T05:17:40;-3.00;99.90
15906;DHT22;8051;50.820;4.884;2023-03-01T05:20:09;-3.00;99.90
15906;DHT22;8051;50.820;4.884;2023-03-01T05:22:36;-3.00;99.90
15906;DHT22;8051;50.820;4.884;2023-03-01T05:25:06;-3.00;99.90
15906;DHT22;8051;50.820;4.884;2023-03-01T05:27:34;-3.10;99.90
15906;DHT22;8051;50.820;4.884;2023-03-01T05:30:03;-3.10;99.90
15906;DHT22;8051;50.820;4.884;2023-03-01T05:32:41;-3.10;99.90
15906;DHT22;8051;50.820;4.884;2023-03-01T05:35:09;-3.10;99.90
15906;DHT22;8051;50.820;4.884;2023-03-01T05:37:40;-3.00;99.90
15906;DHT22;8051;50.820;4.884;2023-03-01T05:40:13;-3.10;99.90
15906;DHT22;8051;50.820;4.884;2023-03-01T05:42:46;-3.10;99.90
15906;DHT22;8051;50.820;4.884;2023-03-01T05:45:15;-3.10;99.90
15906;DHT22;8051;50.820;4.884;2023-03-01T05:47:44;-3.10;99.90
15906;DHT22;8051;50.820;4.884;2023-03-01T05:50:14;-3.10;99.90
15906;DHT22;8051;50.820;4.884;2023-03-01T05:52:45;-3.10;99.90
15906;DHT22;8051;50.820;4.884;2023-03-01T05:55:16;-3.10;99.90
15906;DHT22;8051;50.820;4.884;2023-03-01T05:57:44;-3.20;99.90
15906;DHT22;8051;50.820;4.884;2023-03-01T06:00:13;-3.20;99.90
15906;DHT22;8051;50.820;4.884;2023-03-01T06:02:41;-3.20;99.90
15906;DHT22;8051;50.820;4.884;2023-03-01T06:05:13;-3.20;99.90
15906;DHT22;8051;50.820;4.884;2023-03-01T06:07:41;-3.30;99.90
15906;DHT22;8051;50.820;4.884;2023-03-01T06:10:10;-3.40;99.90
15906;DHT22;8051;50.820;4.884;2023-03-01T06:12:40;-3.30;99.90
15906;DHT22;8051;50.820;4.884;2023-03-01T06:15:10;-3.40;99.90
15906;DHT22;8051;50.820;4.884;2023-03-01T06:17:39;-3.40;99.90
15906;DHT22;8051;50.820;4.884;2023-03-01T06:20:08;-3.40;99.90
15906;DHT22;8051;50.820;4.884;2023-03-01T06:22:36;-3.40;99.90
15906;DHT22;8051;50.820;4.884;2023-03-01T06:25:04;-3.40;99.90
15906;DHT22;8051;50.820;4.884;2023-03-01T06:27:32;-3.40;99.90
15906;DHT22;8051;50.820;4.884;2023-03-01T06:30:01;-3.50;99.90
15906;DHT22;8051;50.820;4.884;2023-03-01T06:32:29;-3.50;99.90
15906;DHT22;8051;50.820;4.884;2023-03-01T06:34:57;-3.50;99.90
15906;DHT22;8051;50.820;4.884;2023-03-01T06:37:25;-3.50;99.90
15906;DHT22;8051;50.820;4.884;2023-03-01T06:39:53;-3.60;99.90
15906;DHT22;8051;50.820;4.884;2023-03-01T06:42:20;-3.60;99.90
15906;DHT22;8051;50.820;4.884;2023-03-01T06:44:48;-3.60;99.90
15906;DHT22;8051;50.820;4.884;2023-03-01T06:47:17;-3.60;99.90
15906;DHT22;8051;50.820;4.884;2023-03-01T06:49:44;-3.60;99.90
15906;DHT22;8051;50.820;4.884;2023-03-01T06:52:11;-3.60;99.90
15906;DHT22;8051;50.820;4.884;2023-03-01T06:54:39;-3.50;99.90
15906;DHT22;8051;50.820;4.884;2023-03-01T06:57:06;-3.40;99.90
15906;DHT22;8051;50.820;4.884;2023-03-01T06:59:34;-3.30;99.90
15906;DHT22;8051;50.820;4.884;2023-03-01T07:02:01;-3.10;99.90
15906;DHT22;8051;50.820;4.884;2023-03-01T07:04:30;-2.90;99.90
15906;DHT22;8051;50.820;4.884;2023-03-01T07:06:57;-2.70;99.90
15906;DHT22;8051;50.820;4.884;2023-03-01T07:09:25;-2.70;99.90
15906;DHT22;8051;50.820;4.884;2023-03-01T07:11:53;-2.60;99.90
15906;DHT22;8051;50.820;4.884;2023-03-01T07:14:20;-2.50;99.90
15906;DHT22;8051;50.820;4.884;2023-03-01T07:16:50;-2.50;99.90
15906;DHT22;8051;50.820;4.884;2023-03-01T07:19:17;-2.50;99.90
15906;DHT22;8051;50.820;4.884;2023-03-01T07:21:46;-2.40;99.90
15906;DHT22;8051;50.820;4.884;2023-03-01T07:24:14;-2.40;99.90
15906;DHT22;8051;50.820;4.884;2023-03-01T07:26:41;-2.30;99.90
15906;DHT22;8051;50.820;4.884;2023-03-01T07:29:10;-2.30;99.90
15906;DHT22;8051;50.820;4.884;2023-03-01T07:31:38;-2.20;99.90
15906;DHT22;8051;50.820;4.884;2023-03-01T07:34:05;-2.20;99.90
15906;DHT22;8051;50.820;4.884;2023-03-01T07:36:33;-2.20;99.90
15906;DHT22;8051;50.820;4.884;2023-03-01T07:39:02;-2.10;99.90
15906;DHT22;8051;50.820;4.884;2023-03-01T07:41:30;-2.10;99.90
15906;DHT22;8051;50.820;4.884;2023-03-01T07:43:57;-2.00;99.90
15906;DHT22;8051;50.820;4.884;2023-03-01T07:46:24;-1.90;99.90
15906;DHT22;8051;50.820;4.884;2023-03-01T07:48:52;-1.80;99.90
15906;DHT22;8051;50.820;4.884;2023-03-01T07:51:19;-1.80;99.90
15906;DHT22;8051;50.820;4.884;2023-03-01T07:53:47;-1.70;99.90
15906;DHT22;8051;50.820;4.884;2023-03-01T07:56:16;-1.70;99.90
15906;DHT22;8051;50.820;4.884;2023-03-01T07:58:45;-1.60;99.90
15906;DHT22;8051;50.820;4.884;2023-03-01T08:01:14;-1.50;99.90
15906;DHT22;8051;50.820;4.884;2023-03-01T08:03:42;-1.50;99.90
15906;DHT22;8051;50.820;4.884;2023-03-01T08:06:11;-1.40;99.90
15906;DHT22;8051;50.820;4.884;2023-03-01T08:08:38;-1.40;99.90
15906;DHT22;8051;50.820;4.884;2023-03-01T08:11:07;-1.30;99.90
15906;DHT22;8051;50.820;4.884;2023-03-01T08:13:38;-1.20;99.90
15906;DHT22;8051;50.820;4.884;2023-03-01T08:16:09;-1.20;99.90
15906;DHT22;8051;50.820;4.884;2023-03-01T08:18:37;-1.10;99.90
15906;DHT22;8051;50.820;4.884;2023-03-01T08:21:05;-1.10;99.90
15906;DHT22;8051;50.820;4.884;2023-03-01T08:23:33;-1.00;99.90
15906;DHT22;8051;50.820;4.884;2023-03-01T08:26:06;-1.00;99.90
15906;DHT22;8051;50.820;4.884;2023-03-01T08:28:34;-0.90;99.90
15906;DHT22;8051;50.820;4.884;2023-03-01T08:31:12;-0.80;99.90
15906;DHT22;8051;50.820;4.884;2023-03-01T08:33:40;-0.80;99.90
15906;DHT22;8051;50.820;4.884;2023-03-01T08:36:07;-0.70;99.90
15906;DHT22;8051;50.820;4.884;2023-03-01T08:38:35;-0.70;99.90
15906;DHT22;8051;50.820;4.884;2023-03-01T08:41:03;-0.60;99.90
15906;DHT22;8051;50.820;4.884;2023-03-01T08:43:31;-0.50;99.90
15906;DHT22;8051;50.820;4.884;2023-03-01T08:45:58;-0.60;99.90
15906;DHT22;8051;50.820;4.884;2023-03-01T08:48:27;-0.50;99.90
15906;DHT22;8051;50.820;4.884;2023-03-01T08:50:55;-0.40;99.90
15906;DHT22;8051;50.820;4.884;2023-03-01T08:53:22;-0.30;99.90
15906;DHT22;8051;50.820;4.884;2023-03-01T08:55:50;-0.30;99.90
15906;DHT22;8051;50.820;4.884;2023-03-01T08:58:17;-0.20;99.90
15906;DHT22;8051;50.820;4.884;2023-03-01T09:00:45;-0.10;99.90
15906;DHT22;8051;50.820;4.884;2023-03-01T09:03:12;-0.10;99.90
15906;DHT22;8051;50.820;4.884;2023-03-01T09:05:41;0.00;99.90
15906;DHT22;8051;50.820;4.884;2023-03-01T09:08:11;0.10;99.90
15906;DHT22;8051;50.820;4.884;2023-03-01T09:10:39;0.10;99.90
15906;DHT22;8051;50.820;4.884;2023-03-01T09:13:06;0.20;99.90
15906;DHT22;8051;50.820;4.884;2023-03-01T09:15:33;0.30;99.90
15906;DHT22;8051;50.820;4.884;2023-03-01T09:18:01;0.40;99.90
15906;DHT22;8051;50.820;4.884;2023-03-01T09:20:29;0.50;99.90
15906;DHT22;8051;50.820;4.884;2023-03-01T09:22:58;0.70;99.90
15906;DHT22;8051;50.820;4.884;2023-03-01T09:25:26;0.80;99.90
15906;DHT22;8051;50.820;4.884;2023-03-01T09:27:54;0.80;99.90
15906;DHT22;8051;50.820;4.884;2023-03-01T09:30:22;0.80;99.90
15906;DHT22;8051;50.820;4.884;2023-03-01T09:32:50;0.90;99.90
15906;DHT22;8051;50.820;4.884;2023-03-01T09:35:18;1.00;99.90
15906;DHT22;8051;50.820;4.884;2023-03-01T09:37:45;1.00;99.90
15906;DHT22;8051;50.820;4.884;2023-03-01T09:40:19;1.20;99.90
15906;DHT22;8051;50.820;4.884;2023-03-01T09:42:53;1.30;99.90
15906;DHT22;8051;50.820;4.884;2023-03-01T09:45:29;1.40;99.90
15906;DHT22;8051;50.820;4.884;2023-03-01T09:47:57;1.40;99.90
15906;DHT22;8051;50.820;4.884;2023-03-01T09:50:28;1.50;99.90
15906;DHT22;8051;50.820;4.884;2023-03-01T09:53:02;1.60;99.90
15906;DHT22;8051;50.820;4.884;2023-03-01T09:55:36;1.70;99.90
15906;DHT22;8051;50.820;4.884;2023-03-01T09:58:35;1.70;99.90
15906;DHT22;8051;50.820;4.884;2023-03-01T10:01:17;1.80;99.90
15906;DHT22;8051;50.820;4.884;2023-03-01T10:04:00;1.80;99.90
15906;DHT22;8051;50.820;4.884;2023-03-01T10:06:30;1.80;99.90
15906;DHT22;8051;50.820;4.884;2023-03-01T10:09:00;2.00;99.90
15906;DHT22;8051;50.820;4.884;2023-03-01T10:11:32;2.00;99.90
15906;DHT22;8051;50.820;4.884;2023-03-01T10:14:05;2.10;99.90
15906;DHT22;8051;50.820;4.884;2023-03-01T10:16:40;2.20;99.90
15906;DHT22;8051;50.820;4.884;2023-03-01T10:19:14;2.10;99.90
15906;DHT22;8051;50.820;4.884;2023-03-01T10:21:45;2.20;99.90
15906;DHT22;8051;50.820;4.884;2023-03-01T10:24:14;2.20;99.90
15906;DHT22;8051;50.820;4.884;2023-03-01T10:26:54;2.30;99.90
15906;DHT22;8051;50.820;4.884;2023-03-01T10:29:25;2.40;99.90
15906;DHT22;8051;50.820;4.884;2023-03-01T10:31:54;2.40;99.90
15906;DHT22;8051;50.820;4.884;2023-03-01T10:34:28;2.60;99.90
15906;DHT22;8051;50.820;4.884;2023-03-01T10:36:57;2.70;99.90
15906;DHT22;8051;50.820;4.884;2023-03-01T10:39:28;2.70;99.90
15906;DHT22;8051;50.820;4.884;2023-03-01T10:42:00;2.70;99.90
15906;DHT22;8051;50.820;4.884;2023-03-01T10:44:39;2.90;99.90
15906;DHT22;8051;50.820;4.884;2023-03-01T10:47:17;2.90;99.90
15906;DHT22;8051;50.820;4.884;2023-03-01T10:50:00;3.00;99.90
15906;DHT22;8051;50.820;4.884;2023-03-01T10:52:31;3.10;99.90
15906;DHT22;8051;50.820;4.884;2023-03-01T10:55:01;3.10;99.90
15906;DHT22;8051;50.820;4.884;2023-03-01T10:57:34;3.20;99.90
15906;DHT22;8051;50.820;4.884;2023-03-01T11:00:17;3.20;99.90
15906;DHT22;8051;50.820;4.884;2023-03-01T11:02:49;3.30;99.90
15906;DHT22;8051;50.820;4.884;2023-03-01T11:05:20;3.20;99.90
15906;DHT22;8051;50.820;4.884;2023-03-01T11:07:51;3.20;99.90
15906;DHT22;8051;50.820;4.884;2023-03-01T11:10:22;3.30;99.90
15906;DHT22;8051;50.820;4.884;2023-03-01T11:12:52;3.40;99.90
15906;DHT22;8051;50.820;4.884;2023-03-01T11:15:24;3.50;99.90
15906;DHT22;8051;50.820;4.884;2023-03-01T11:17:52;3.50;99.90
15906;DHT22;8051;50.820;4.884;2023-03-01T11:20:29;3.50;99.90
15906;DHT22;8051;50.820;4.884;2023-03-01T11:23:00;3.50;99.90
15906;DHT22;8051;50.820;4.884;2023-03-01T11:25:32;3.60;99.90
15906;DHT22;8051;50.820;4.884;2023-03-01T11:28:05;3.70;99.90
15906;DHT22;8051;50.820;4.884;2023-03-01T11:30:38;3.70;99.90
15906;DHT22;8051;50.820;4.884;2023-03-01T11:33:33;3.80;99.90
15906;DHT22;8051;50.820;4.884;2023-03-01T11:36:05;3.80;99.90
15906;DHT22;8051;50.820;4.884;2023-03-01T11:38:35;3.80;99.90
15906;DHT22;8051;50.820;4.884;2023-03-01T11:41:06;3.80;99.90
15906;DHT22;8051;50.820;4.884;2023-03-01T11:43:45;3.90;99.90
15906;DHT22;8051;50.820;4.884;2023-03-01T11:46:33;4.00;99.90
15906;DHT22;8051;50.820;4.884;2023-03-01T11:49:23;4.00;99.90
15906;DHT22;8051;50.820;4.884;2023-03-01T11:51:58;3.90;99.90
15906;DHT22;8051;50.820;4.884;2023-03-01T11:54:35;4.00;99.90
15906;DHT22;8051;50.820;4.884;2023-03-01T11:57:12;4.20;99.90
15906;DHT22;8051;50.820;4.884;2023-03-01T12:00:17;4.10;99.90
15906;DHT22;8051;50.820;4.884;2023-03-01T12:03:22;4.10;99.90
15906;DHT22;8051;50.820;4.884;2023-03-01T12:06:08;4.20;99.90
15906;DHT22;8051;50.820;4.884;2023-03-01T12:08:42;4.40;99.90
15906;DHT22;8051;50.820;4.884;2023-03-01T12:11:20;4.40;99.90
15906;DHT22;8051;50.820;4.884;2023-03-01T12:14:04;4.50;99.90
15906;DHT22;8051;50.820;4.884;2023-03-01T12:16:47;4.40;99.90
15906;DHT22;8051;50.820;4.884;2023-03-01T12:19:27;4.40;99.90
15906;DHT22;8051;50.820;4.884;2023-03-01T12:22:09;4.40;99.90
15906;DHT22;8051;50.820;4.884;2023-03-01T12:25:04;4.40;99.90
15906;DHT22;8051;50.820;4.884;2023-03-01T12:28:01;4.50;99.90
15906;DHT22;8051;50.820;4.884;2023-03-01T12:30:43;4.50;99.90
15906;DHT22;8051;50.820;4.884;2023-03-01T12:33:22;4.50;99.90
15906;DHT22;8051;50.820;4.884;2023-03-01T12:36:15;4.60;99.90
15906;DHT22;8051;50.820;4.884;2023-03-01T12:38:50;4.80;99.90
15906;DHT22;8051;50.820;4.884;2023-03-01T12:41:46;4.70;99.90
15906;DHT22;8051;50.820;4.884;2023-03-01T12:44:28;4.80;99.90
15906;DHT22;8051;50.820;4.884;2023-03-01T12:47:07;4.90;99.90
15906;DHT22;8051;50.820;4.884;2023-03-01T12:49:43;5.00;99.90
15906;DHT22;8051;50.820;4.884;2023-03-01T12:52:16;5.00;99.90
15906;DHT22;8051;50.820;4.884;2023-03-01T12:54:46;5.00;99.90
15906;DHT22;8051;50.820;4.884;2023-03-01T12:57:18;5.00;99.90
15906;DHT22;8051;50.820;4.884;2023-03-01T13:00:00;5.00;99.90
15906;DHT22;8051;50.820;4.884;2023-03-01T13:02:37;5.00;99.90
15906;DHT22;8051;50.820;4.884;2023-03-01T13:05:19;5.10;99.90
15906;DHT22;8051;50.820;4.884;2023-03-01T13:07:55;5.00;99.90
15906;DHT22;8051;50.820;4.884;2023-03-01T13:10:29;5.10;99.90
15906;DHT22;8051;50.820;4.884;2023-03-01T13:13:13;5.20;99.90
15906;DHT22;8051;50.820;4.884;2023-03-01T13:15:41;5.30;99.90
15906;DHT22;8051;50.820;4.884;2023-03-01T13:18:29;5.20;99.90
15906;DHT22;8051;50.820;4.884;2023-03-01T13:21:00;5.30;99.90
15906;DHT22;8051;50.820;4.884;2023-03-01T13:23:31;5.50;99.90
15906;DHT22;8051;50.820;4.884;2023-03-01T13:26:08;5.50;99.90
15906;DHT22;8051;50.820;4.884;2023-03-01T13:28:40;5.50;99.90
15906;DHT22;8051;50.820;4.884;2023-03-01T13:31:09;5.60;99.90
15906;DHT22;8051;50.820;4.884;2023-03-01T13:33:42;5.60;99.90
15906;DHT22;8051;50.820;4.884;2023-03-01T13:36:47;5.60;99.90
15906;DHT22;8051;50.820;4.884;2023-03-01T13:39:30;5.60;99.90
15906;DHT22;8051;50.820;4.884;2023-03-01T13:41:59;5.50;99.90
15906;DHT22;8051;50.820;4.884;2023-03-01T13:44:32;5.60;99.90
15906;DHT22;8051;50.820;4.884;2023-03-01T13:47:15;5.60;99.90
15906;DHT22;8051;50.820;4.884;2023-03-01T13:49:46;5.70;99.90
15906;DHT22;8051;50.820;4.884;2023-03-01T13:52:34;5.90;99.90
15906;DHT22;8051;50.820;4.884;2023-03-01T13:55:03;5.80;99.90
15906;DHT22;8051;50.820;4.884;2023-03-01T13:57:34;5.90;99.90
15906;DHT22;8051;50.820;4.884;2023-03-01T14:00:06;5.90;99.90
15906;DHT22;8051;50.820;4.884;2023-03-01T14:02:34;6.00;99.90
15906;DHT22;8051;50.820;4.884;2023-03-01T14:05:05;6.00;99.90
15906;DHT22;8051;50.820;4.884;2023-03-01T14:07:38;5.90;99.90
15906;DHT22;8051;50.820;4.884;2023-03-01T14:10:08;5.90;99.90
15906;DHT22;8051;50.820;4.884;2023-03-01T14:12:44;5.90;99.90
15906;DHT22;8051;50.820;4.884;2023-03-01T14:15:18;6.10;99.90
15906;DHT22;8051;50.820;4.884;2023-03-01T14:17:55;6.00;99.90
15906;DHT22;8051;50.820;4.884;2023-03-01T14:20:26;6.20;99.90
15906;DHT22;8051;50.820;4.884;2023-03-01T14:22:57;6.20;99.90
15906;DHT22;8051;50.820;4.884;2023-03-01T14:25:29;6.10;99.90
15906;DHT22;8051;50.820;4.884;2023-03-01T14:28:04;6.20;99.90
15906;DHT22;8051;50.820;4.884;2023-03-01T14:30:35;6.30;99.90
15906;DHT22;8051;50.820;4.884;2023-03-01T14:33:04;6.20;99.90
15906;DHT22;8051;50.820;4.884;2023-03-01T14:35:34;6.10;99.90
15906;DHT22;8051;50.820;4.884;2023-03-01T14:38:03;6.10;99.90
15906;DHT22;8051;50.820;4.884;2023-03-01T14:40:32;6.10;99.90
15906;DHT22;8051;50.820;4.884;2023-03-01T14:43:02;6.20;99.90
15906;DHT22;8051;50.820;4.884;2023-03-01T14:45:35;6.30;99.90
15906;DHT22;8051;50.820;4.884;2023-03-01T14:48:04;6.30;99.90
15906;DHT22;8051;50.820;4.884;2023-03-01T14:50:34;6.20;99.90
15906;DHT22;8051;50.820;4.884;2023-03-01T14:53:05;6.30;99.90
15906;DHT22;8051;50.820;4.884;2023-03-01T14:55:36;6.40;99.90
15906;DHT22;8051;50.820;4.884;2023-03-01T14:58:11;6.40;99.90
15906;DHT22;8051;50.820;4.884;2023-03-01T15:00:39;6.30;99.90
15906;DHT22;8051;50.820;4.884;2023-03-01T15:03:17;6.30;99.90
15906;DHT22;8051;50.820;4.884;2023-03-01T15:05:47;6.30;99.90
15906;DHT22;8051;50.820;4.884;2023-03-01T15:08:19;6.30;99.90
15906;DHT22;8051;50.820;4.884;2023-03-01T15:10:56;6.30;99.90
15906;DHT22;8051;50.820;4.884;2023-03-01T15:13:26;6.30;99.90
15906;DHT22;8051;50.820;4.884;2023-03-01T15:16:03;6.30;99.90
15906;DHT22;8051;50.820;4.884;2023-03-01T15:18:31;6.30;99.90
15906;DHT22;8051;50.820;4.884;2023-03-01T15:21:06;6.30;99.90
15906;DHT22;8051;50.820;4.884;2023-03-01T15:23:37;6.30;99.90
15906;DHT22;8051;50.820;4.884;2023-03-01T15:26:16;6.20;99.90
15906;DHT22;8051;50.820;4.884;2023-03-01T15:28:51;6.20;99.90
15906;DHT22;8051;50.820;4.884;2023-03-01T15:31:23;6.20;99.90
15906;DHT22;8051;50.820;4.884;2023-03-01T15:33:51;6.10;99.90
15906;DHT22;8051;50.820;4.884;2023-03-01T15:36:36;6.10;99.90
15906;DHT22;8051;50.820;4.884;2023-03-01T15:39:22;6.10;99.90
15906;DHT22;8051;50.820;4.884;2023-03-01T15:41:53;6.10;99.90
15906;DHT22;8051;50.820;4.884;2023-03-01T15:44:27;6.00;99.90
15906;DHT22;8051;50.820;4.884;2023-03-01T15:46:54;6.00;99.90
15906;DHT22;8051;50.820;4.884;2023-03-01T15:49:32;6.10;99.90
15906;DHT22;8051;50.820;4.884;2023-03-01T15:52:00;6.00;99.90
15906;DHT22;8051;50.820;4.884;2023-03-01T15:54:29;6.10;99.90
15906;DHT22;8051;50.820;4.884;2023-03-01T15:56:57;6.00;99.90
15906;DHT22;8051;50.820;4.884;2023-03-01T15:59:24;6.00;99.90
15906;DHT22;8051;50.820;4.884;2023-03-01T16:01:52;6.00;99.90
15906;DHT22;8051;50.820;4.884;2023-03-01T16:04:19;6.00;99.90
15906;DHT22;8051;50.820;4.884;2023-03-01T16:06:50;5.90;99.90
15906;DHT22;8051;50.820;4.884;2023-03-01T16:09:22;5.90;99.90
15906;DHT22;8051;50.820;4.884;2023-03-01T16:11:52;5.90;99.90
15906;DHT22;8051;50.820;4.884;2023-03-01T16:14:20;5.80;99.90
15906;DHT22;8051;50.820;4.884;2023-03-01T16:16:48;5.80;99.90
15906;DHT22;8051;50.820;4.884;2023-03-01T16:19:16;5.80;99.90